Terminal Aerodrome Forecast
Issued by NWS

Home | Current Version | Previous Version | Text Only | Print | Product List | Glossary On
Versions: 1 2 3 4 5 6 7 8 9 10 11 12 13 14 15 16 17
000
FTUS43 KSGF 281732
TAFJLN
TAF
KJLN 281732Z 2818/2918 31009KT P6SM VCTS SCT035CB SCT250
     FM282100 32006KT P6SM SCT250
     FM290800 VRB03KT P6SM BKN250 PROB30 2910/2916 4SM -TSRA
      OVC040CB=

USA.gov is the U.S. government's official web portal to all federal, state and local government web resources and services.